Time;durP1;ratioP1;P1;durP2;ratioP2;P2;SDS_P1;SDS_P2;PMS_P1;PMS_P2;Temp;Humidity;BMP_temperature;BMP_pressure;BME280_temperature;BME280_humidity;BME280_pressure;Samples;Min_cycle;Max_cycle;Signal;HPM_P1;HPM_P2
2021/09/04 00:01:41;;;;;;;7.78;4.47;;;;;;;16.92;59.53;97464.50;5044806;28;20034;-45
2021/09/04 00:04:06;;;;;;;6.28;4.07;;;;;;;16.85;59.51;97464.84;5044060;28;20016;-44
2021/09/04 00:06:32;;;;;;;6.93;4.47;;;;;;;16.75;59.89;97463.88;5044060;28;20109;-42
2021/09/04 00:08:57;;;;;;;7.13;4.20;;;;;;;16.73;60.04;97457.88;5044128;28;20056;-43
2021/09/04 00:11:22;;;;;;;7.13;4.43;;;;;;;16.78;59.82;97459.75;5043672;28;20031;-46
2021/09/04 00:13:48;;;;;;;7.25;5.03;;;;;;;16.81;59.25;97463.81;5044552;28;20063;-42
2021/09/04 00:16:13;;;;;;;6.57;4.32;;;;;;;16.76;59.68;97461.94;5044449;28;20044;-42
2021/09/04 00:18:39;;;;;;;6.90;4.35;;;;;;;16.66;59.77;97465.59;5044072;28;20388;-42
2021/09/04 00:21:04;;;;;;;6.18;4.00;;;;;;;16.58;59.80;97466.25;5043374;28;20059;-42
2021/09/04 00:23:30;;;;;;;9.80;5.65;;;;;;;16.73;59.35;97466.06;5043091;28;20036;-42
2021/09/04 00:25:55;;;;;;;7.97;4.32;;;;;;;16.58;59.68;97467.03;5042678;28;20024;-41
2021/09/04 00:28:20;;;;;;;10.25;4.80;;;;;;;16.43;60.39;97457.06;5044216;28;20163;-42
2021/09/04 00:30:46;;;;;;;6.22;3.85;;;;;;;16.43;60.08;97461.75;5043140;28;20422;-42
2021/09/04 00:33:11;;;;;;;7.82;4.68;;;;;;;16.42;60.10;97457.38;5044527;28;20024;-43
2021/09/04 00:35:37;;;;;;;7.47;4.95;;;;;;;16.40;60.13;97460.38;5036294;28;20021;-42
2021/09/04 00:38:02;;;;;;;7.00;4.75;;;;;;;16.36;60.36;97456.59;5026331;28;20044;-44
2021/09/04 00:40:28;;;;;;;9.27;4.95;;;;;;;16.39;60.39;97453.28;5043157;28;20615;-45
2021/09/04 00:42:56;;;;;;;7.53;4.53;;;;;;;16.44;60.16;97452.44;5051529;28;20551;-43
2021/09/04 00:45:22;;;;;;;8.77;4.50;;;;;;;16.67;59.52;97459.03;5040282;28;20027;-41
2021/09/04 00:47:56;;;;;;;6.70;4.20;;;;;;;16.94;58.86;97446.69;5063286;28;20403;-41
2021/09/04 00:50:21;;;;;;;9.50;4.63;;;;;;;17.16;58.30;97451.66;5045545;28;20028;-42
2021/09/04 00:52:46;;;;;;;7.07;4.00;;;;;;;17.40;57.71;97450.78;5039781;28;20013;-43
2021/09/04 00:55:12;;;;;;;6.82;4.65;;;;;;;17.54;57.41;97455.50;5043042;28;20483;-42
2021/09/04 00:57:37;;;;;;;6.60;4.40;;;;;;;17.57;57.32;97460.41;5042202;28;20028;-45
2021/09/04 01:00:03;;;;;;;7.68;4.13;;;;;;;17.48;57.45;97459.44;5043058;28;20028;-43
2021/09/04 01:02:30;;;;;;;6.63;4.40;;;;;;;17.40;57.58;97455.47;5044078;28;20151;-42
2021/09/04 01:04:55;;;;;;;9.13;4.55;;;;;;;17.25;58.09;97457.28;5043718;28;20071;-42
2021/09/04 01:07:22;;;;;;;6.40;4.13;;;;;;;17.18;57.91;97451.38;5043965;28;20060;-42
2021/09/04 01:09:47;;;;;;;7.07;4.40;;;;;;;16.78;58.81;97446.06;5046458;28;20476;-44
2021/09/04 01:12:13;;;;;;;8.52;5.13;;;;;;;16.69;59.47;97453.28;5043849;28;20025;-42
2021/09/04 01:14:39;;;;;;;6.88;4.85;;;;;;;16.83;59.08;97451.47;5042550;28;20028;-42
2021/09/04 01:17:05;;;;;;;6.30;4.32;;;;;;;17.22;57.87;97448.84;5044982;28;20021;-42
2021/09/04 01:19:31;;;;;;;6.95;4.22;;;;;;;17.46;57.40;97446.06;5043144;28;20024;-43
2021/09/04 01:21:57;;;;;;;6.30;4.43;;;;;;;17.60;57.23;97442.56;5043467;28;20024;-42
2021/09/04 01:24:23;;;;;;;6.55;4.20;;;;;;;17.68;57.09;97439.16;5042644;28;21476;-42
2021/09/04 01:26:48;;;;;;;7.30;4.55;;;;;;;17.66;57.21;97433.97;5043793;28;20027;-42
2021/09/04 01:29:13;;;;;;;7.20;4.40;;;;;;;17.72;56.78;97428.44;5042427;28;20104;-42
2021/09/04 01:31:39;;;;;;;7.68;4.65;;;;;;;17.62;57.02;97435.69;5042325;28;20040;-41
2021/09/04 01:34:05;;;;;;;9.30;4.82;;;;;;;17.54;57.30;97439.09;5043753;28;20029;-43
2021/09/04 01:36:35;;;;;;;6.72;4.32;;;;;;;17.55;57.19;97441.53;5043367;28;20083;-42
2021/09/04 01:39:02;;;;;;;8.37;5.27;;;;;;;17.14;57.81;97439.38;5042464;28;20052;-42
2021/09/04 01:41:28;;;;;;;7.40;4.63;;;;;;;17.00;58.25;97440.03;5052869;28;20288;-42
2021/09/04 01:43:54;;;;;;;7.35;4.45;;;;;;;16.83;58.17;97437.81;5047141;28;20053;-43
2021/09/04 01:46:19;;;;;;;8.15;5.10;;;;;;;16.83;59.09;97442.44;5048598;28;20025;-42
2021/09/04 01:48:45;;;;;;;6.30;4.60;;;;;;;17.02;58.44;97435.13;5046417;28;20105;-42
2021/09/04 01:51:11;;;;;;;6.00;4.32;;;;;;;17.40;57.51;97431.63;5047422;28;20522;-43
2021/09/04 01:53:37;;;;;;;9.23;4.90;;;;;;;17.62;57.06;97413.00;5046471;28;20773;-43
2021/09/04 01:56:02;;;;;;;9.73;4.85;;;;;;;17.70;57.07;97415.06;5049606;28;20033;-42
2021/09/04 01:58:27;;;;;;;8.18;4.75;;;;;;;17.68;56.88;97420.81;5050191;28;20035;-44
2021/09/04 02:00:53;;;;;;;7.88;4.72;;;;;;;17.63;56.91;97420.09;5044479;28;20106;-43
2021/09/04 02:03:19;;;;;;;6.40;4.40;;;;;;;17.51;57.37;97424.06;5047094;28;20025;-45
2021/09/04 02:05:45;;;;;;;7.28;4.65;;;;;;;17.61;57.08;97423.13;5045255;28;20033;-42
2021/09/04 02:08:10;;;;;;;6.70;4.07;;;;;;;17.70;56.86;97428.75;5045833;28;20040;-42
2021/09/04 02:10:36;;;;;;;6.35;4.22;;;;;;;17.73;56.71;97414.44;5061614;28;20029;-43
2021/09/04 02:13:01;;;;;;;6.57;3.92;;;;;;;17.73;56.68;97413.66;5037832;28;20415;-42
2021/09/04 02:15:26;;;;;;;7.72;4.22;;;;;;;17.74;56.56;97418.00;5043912;28;20643;-42
2021/09/04 02:17:52;;;;;;;6.63;4.63;;;;;;;17.73;56.63;97410.91;5047943;28;20058;-42
2021/09/04 02:20:17;;;;;;;8.18;4.97;;;;;;;17.74;56.63;97415.25;5047663;28;20053;-42
2021/09/04 02:22:42;;;;;;;7.50;4.28;;;;;;;17.81;56.41;97415.72;5046709;28;20755;-42
2021/09/04 02:25:08;;;;;;;6.28;4.22;;;;;;;17.89;56.30;97412.28;5046305;28;20116;-42
2021/09/04 02:27:34;;;;;;;8.48;4.68;;;;;;;17.73;56.77;97419.13;5045117;28;20033;-42
2021/09/04 02:29:59;;;;;;;6.05;4.32;;;;;;;17.64;57.03;97413.50;5046615;28;20016;-41
2021/09/04 02:32:24;;;;;;;6.25;4.25;;;;;;;17.76;56.79;97408.38;5066778;28;20024;-43
2021/09/04 02:34:50;;;;;;;6.55;4.07;;;;;;;17.81;56.61;97411.03;5048776;28;20102;-42
2021/09/04 02:37:15;;;;;;;7.38;4.55;;;;;;;17.79;56.46;97404.22;5043347;28;20025;-44
2021/09/04 02:39:42;;;;;;;8.05;3.92;;;;;;;17.68;56.59;97401.66;5045925;28;20100;-41
2021/09/04 02:42:08;;;;;;;6.43;4.55;;;;;;;17.36;57.22;97410.63;5052721;28;20451;-43
2021/09/04 02:44:33;;;;;;;7.82;5.28;;;;;;;17.12;58.35;97401.38;5042692;28;20515;-43
2021/09/04 02:46:59;;;;;;;6.75;4.40;;;;;;;17.06;58.47;97405.28;5044718;28;20035;-42
2021/09/04 02:49:24;;;;;;;8.18;5.03;;;;;;;16.97;58.76;97399.63;5045175;28;20475;-42
2021/09/04 02:51:49;;;;;;;7.95;4.68;;;;;;;16.85;58.93;97413.69;5044362;28;20249;-43
2021/09/04 02:54:15;;;;;;;10.50;5.10;;;;;;;16.86;59.00;97406.31;5045315;28;20029;-42
2021/09/04 02:56:40;;;;;;;7.30;4.80;;;;;;;16.86;59.09;97409.06;5049578;28;20104;-42
2021/09/04 02:59:05;;;;;;;8.15;5.40;;;;;;;16.82;58.93;97408.84;5048655;28;20048;-42
2021/09/04 03:01:31;;;;;;;9.48;4.70;;;;;;;16.81;59.32;97406.38;5043630;28;20100;-42
2021/09/04 03:03:56;;;;;;;6.70;4.80;;;;;;;16.74;59.35;97399.34;5043723;28;20062;-44
2021/09/04 03:06:21;;;;;;;8.00;4.57;;;;;;;16.75;59.36;97400.16;5065165;28;20054;-43
2021/09/04 03:08:47;;;;;;;6.80;4.63;;;;;;;16.59;59.60;97402.28;5049135;28;20497;-43
2021/09/04 03:11:12;;;;;;;7.65;5.20;;;;;;;16.64;59.61;97400.28;5045104;28;20036;-43
2021/09/04 03:13:37;;;;;;;9.75;5.15;;;;;;;16.62;59.64;97398.97;5045956;28;20064;-43
2021/09/04 03:16:03;;;;;;;7.82;4.82;;;;;;;16.85;59.11;97401.97;5046941;28;20023;-47
2021/09/04 03:18:29;;;;;;;7.30;4.78;;;;;;;17.10;58.38;97397.31;5045476;28;20446;-44
2021/09/04 03:20:54;;;;;;;7.32;4.93;;;;;;;17.12;58.29;97395.06;5045408;28;20033;-42
2021/09/04 03:23:19;;;;;;;7.45;4.85;;;;;;;17.13;58.18;97393.97;5045888;28;20029;-42
2021/09/04 03:25:45;;;;;;;8.27;5.15;;;;;;;17.12;58.31;97397.81;5045595;28;20374;-43
2021/09/04 03:28:10;;;;;;;7.57;5.28;;;;;;;16.97;58.45;97393.34;5056616;28;20032;-42
2021/09/04 03:30:35;;;;;;;8.82;5.60;;;;;;;16.87;58.87;97399.75;5063826;28;20081;-42
2021/09/04 03:33:01;;;;;;;8.98;5.07;;;;;;;16.78;58.95;97396.84;5065246;28;20021;-42
2021/09/04 03:35:27;;;;;;;7.88;5.00;;;;;;;16.73;59.13;97386.78;5065487;28;20033;-42
2021/09/04 03:37:52;;;;;;;7.13;5.00;;;;;;;16.77;59.10;97393.28;5055770;28;20048;-42
2021/09/04 03:40:18;;;;;;;8.13;4.57;;;;;;;16.86;59.00;97387.19;5065674;28;20024;-43
2021/09/04 03:42:43;;;;;;;8.10;4.95;;;;;;;17.10;58.31;97394.56;5055193;28;20369;-42
2021/09/04 03:45:09;;;;;;;7.03;4.78;;;;;;;17.26;57.75;97390.53;5044929;28;20029;-43
2021/09/04 03:47:34;;;;;;;7.55;5.07;;;;;;;17.44;57.18;97388.06;5044912;28;20031;-42
2021/09/04 03:50:00;;;;;;;6.22;4.43;;;;;;;17.52;57.07;97392.88;5045296;28;20025;-42
2021/09/04 03:52:25;;;;;;;7.90;4.65;;;;;;;17.63;56.80;97388.06;5042956;28;20046;-43
2021/09/04 03:54:50;;;;;;;7.88;4.65;;;;;;;17.73;56.60;97386.25;5051507;28;20029;-42
2021/09/04 03:57:16;;;;;;;8.70;4.57;;;;;;;17.66;56.62;97390.19;5044163;28;20040;-43
2021/09/04 03:59:41;;;;;;;6.32;4.65;;;;;;;17.35;57.22;97385.19;5044844;28;20027;-42
2021/09/04 04:02:06;;;;;;;6.50;4.47;;;;;;;17.20;57.68;97391.69;5043097;28;20033;-42
2021/09/04 04:04:32;;;;;;;6.55;4.13;;;;;;;17.41;57.02;97388.66;5044541;28;20036;-42
2021/09/04 04:06:57;;;;;;;7.07;4.40;;;;;;;17.59;56.80;97381.56;5041611;28;20033;-43
2021/09/04 04:09:23;;;;;;;6.55;4.18;;;;;;;17.29;57.25;97381.69;5038816;28;20025;-42
2021/09/04 04:11:48;;;;;;;6.93;4.43;;;;;;;17.52;56.77;97383.84;5043128;28;20099;-42
2021/09/04 04:14:13;;;;;;;8.25;4.55;;;;;;;17.50;56.65;97392.34;5043655;28;20472;-42
2021/09/04 04:16:39;;;;;;;10.00;5.68;;;;;;;17.41;57.06;97385.91;5044059;28;20037;-46
2021/09/04 04:19:04;;;;;;;8.48;5.03;;;;;;;17.35;57.00;97382.44;5044896;28;20056;-42
2021/09/04 04:21:29;;;;;;;6.60;4.30;;;;;;;17.24;57.56;97391.91;5043620;28;20024;-42
2021/09/04 04:23:55;;;;;;;8.65;4.70;;;;;;;16.98;57.86;97392.22;5043810;28;20033;-43
2021/09/04 04:26:20;;;;;;;8.70;4.35;;;;;;;17.02;57.94;97387.78;5044312;28;20116;-43
2021/09/04 04:28:45;;;;;;;7.03;4.60;;;;;;;16.95;58.11;97390.88;5038379;28;20029;-41
2021/09/04 04:31:11;;;;;;;7.10;4.97;;;;;;;16.62;58.79;97388.03;5031429;28;20035;-41
2021/09/04 04:33:36;;;;;;;8.52;4.80;;;;;;;16.57;58.89;97380.69;5042615;28;20111;-42
2021/09/04 04:36:02;;;;;;;8.13;4.47;;;;;;;17.02;57.90;97379.56;5033558;28;20423;-42
2021/09/04 04:38:27;;;;;;;7.00;4.88;;;;;;;17.14;57.38;97382.72;5030312;28;20104;-42
2021/09/04 04:40:53;;;;;;;9.82;4.72;;;;;;;16.83;57.97;97388.59;5040497;28;20028;-43
2021/09/04 04:43:18;;;;;;;6.97;4.88;;;;;;;16.73;58.33;97391.44;5039200;28;20039;-42
2021/09/04 04:45:43;;;;;;;9.02;4.60;;;;;;;17.48;56.55;97386.38;5052871;28;20056;-43
2021/09/04 04:48:09;;;;;;;8.43;4.15;;;;;;;17.85;55.68;97394.00;5061906;28;20052;-46
2021/09/04 04:50:34;;;;;;;6.18;4.15;;;;;;;18.06;55.03;97398.00;5057879;28;20133;-42
2021/09/04 04:53:01;;;;;;;10.38;4.65;;;;;;;18.16;54.69;97397.06;5062441;28;20035;-43
2021/09/04 04:55:26;;;;;;;9.55;5.20;;;;;;;18.15;54.29;97406.41;5045357;28;20024;-42
2021/09/04 04:57:51;;;;;;;7.95;5.03;;;;;;;18.13;54.27;97397.66;5040665;28;20047;-46
2021/09/04 05:00:17;;;;;;;12.75;5.85;;;;;;;18.00;53.96;97401.97;5052918;28;20032;-44
2021/09/04 05:02:42;;;;;;;7.97;4.60;;;;;;;18.00;54.59;97401.97;5048897;28;20017;-42
2021/09/04 05:05:08;;;;;;;7.97;4.32;;;;;;;17.80;54.90;97392.97;5044986;28;20562;-45
2021/09/04 05:07:34;;;;;;;7.68;4.70;;;;;;;17.35;55.41;97392.56;5062030;28;20040;-45
2021/09/04 05:10:00;;;;;;;7.82;4.60;;;;;;;16.74;57.47;97396.59;5058737;28;20021;-44
2021/09/04 05:12:25;;;;;;;8.98;4.30;;;;;;;17.02;56.83;97396.81;5036453;28;20037;-42
2021/09/04 05:14:50;;;;;;;6.75;4.32;;;;;;;17.26;55.90;97404.19;5047884;28;20021;-42
2021/09/04 05:17:16;;;;;;;7.20;4.65;;;;;;;17.39;55.99;97399.06;5050206;28;20017;-46
2021/09/04 05:19:41;;;;;;;7.35;4.80;;;;;;;17.58;55.53;97401.81;5047866;28;20693;-44
2021/09/04 05:22:07;;;;;;;8.82;4.40;;;;;;;17.68;55.24;97400.84;5052387;28;20051;-43
2021/09/04 05:24:32;;;;;;;7.65;4.55;;;;;;;17.65;55.53;97404.97;5047806;28;20112;-45
2021/09/04 05:26:57;;;;;;;9.02;4.20;;;;;;;17.67;55.73;97407.44;5065732;28;20029;-42
2021/09/04 05:29:23;;;;;;;7.22;4.50;;;;;;;17.67;55.89;97399.22;5065592;28;20103;-44
2021/09/04 05:31:48;;;;;;;6.88;4.60;;;;;;;17.64;55.83;97400.63;5065861;28;20028;-44
2021/09/04 05:34:13;;;;;;;8.50;4.57;;;;;;;17.54;56.28;97406.25;5048407;28;20076;-43
2021/09/04 05:36:39;;;;;;;8.00;5.00;;;;;;;17.58;56.38;97404.53;5027573;28;20029;-43
2021/09/04 05:39:04;;;;;;;9.10;4.78;;;;;;;17.57;56.19;97405.66;5027963;28;20492;-43
2021/09/04 05:41:29;;;;;;;6.20;4.25;;;;;;;17.76;55.79;97405.63;5040785;28;20020;-44
2021/09/04 05:43:55;;;;;;;6.43;4.40;;;;;;;17.79;55.75;97406.97;5061720;28;20029;-43
2021/09/04 05:46:20;;;;;;;7.97;4.57;;;;;;;17.83;55.72;97402.50;5059252;28;20106;-43
2021/09/04 05:48:46;;;;;;;7.85;4.60;;;;;;;17.76;55.96;97408.38;5065255;28;20168;-42
2021/09/04 05:51:11;;;;;;;7.75;4.30;;;;;;;17.52;56.66;97403.81;5065543;28;20119;-42
2021/09/04 05:53:38;;;;;;;6.82;4.60;;;;;;;17.57;56.63;97397.44;5065657;28;20464;-46
2021/09/04 05:56:04;;;;;;;6.68;4.55;;;;;;;17.87;55.92;97402.75;5065092;28;20028;-42
2021/09/04 05:58:29;;;;;;;7.93;4.80;;;;;;;17.97;55.63;97409.97;5064724;28;20032;-48
2021/09/04 06:00:54;;;;;;;7.78;4.25;;;;;;;17.87;56.05;97409.03;5065259;28;20475;-44
2021/09/04 06:03:20;;;;;;;6.85;4.25;;;;;;;17.96;55.93;97409.16;5056095;28;20100;-43
2021/09/04 06:05:45;;;;;;;6.15;4.18;;;;;;;18.02;55.67;97410.69;5064926;28;20028;-42
2021/09/04 06:08:10;;;;;;;7.93;4.47;;;;;;;18.07;55.74;97410.59;5064489;28;20053;-43
2021/09/04 06:10:36;;;;;;;8.38;4.53;;;;;;;18.01;55.97;97403.59;5064809;28;20032;-45
2021/09/04 06:13:01;;;;;;;7.55;4.13;;;;;;;18.01;56.20;97406.31;5064370;28;20028;-43
2021/09/04 06:15:27;;;;;;;6.72;4.20;;;;;;;18.07;56.06;97402.38;5053265;28;20074;-44
2021/09/04 06:17:52;;;;;;;7.00;4.15;;;;;;;18.16;55.74;97413.50;5046845;28;20033;-44
2021/09/04 06:20:17;;;;;;;6.28;4.03;;;;;;;18.16;55.90;97407.19;5046612;28;20476;-46
2021/09/04 06:22:43;;;;;;;7.60;4.40;;;;;;;18.16;55.80;97405.28;5046092;28;20057;-43
2021/09/04 06:25:09;;;;;;;7.78;4.05;;;;;;;18.18;55.98;97403.03;5026098;28;20029;-45
2021/09/04 06:27:34;;;;;;;8.07;4.78;;;;;;;18.24;55.84;97398.28;5033479;28;20025;-46
2021/09/04 06:29:59;;;;;;;6.28;4.40;;;;;;;18.30;55.72;97397.09;5046335;28;20025;-46
2021/09/04 06:32:26;;;;;;;6.43;4.28;;;;;;;18.36;55.54;97399.72;5046479;28;20484;-44
2021/09/04 06:34:53;;;;;;;7.03;4.60;;;;;;;18.36;55.74;97397.00;5046165;28;20039;-46
2021/09/04 06:37:18;;;;;;;7.28;4.78;;;;;;;18.32;55.97;97402.28;5046190;28;20490;-42
2021/09/04 06:39:44;;;;;;;6.68;4.38;;;;;;;18.37;55.74;97410.41;5034018;28;20052;-45
2021/09/04 06:42:09;;;;;;;5.85;4.18;;;;;;;18.33;56.06;97401.16;5052534;28;20071;-43
2021/09/04 06:44:34;;;;;;;10.30;4.70;;;;;;;18.29;56.85;97408.34;5066579;28;20115;-45
2021/09/04 06:47:00;;;;;;;7.65;4.85;;;;;;;18.27;56.98;97407.81;5046967;28;20492;-44
2021/09/04 06:49:25;;;;;;;6.35;4.28;;;;;;;18.45;56.12;97403.41;5046436;28;20098;-45
2021/09/04 06:51:50;;;;;;;5.72;3.95;;;;;;;18.52;56.11;97405.72;5046311;28;20036;-44
2021/09/04 06:54:16;;;;;;;7.40;4.70;;;;;;;18.51;55.98;97404.13;5045973;28;20040;-43
2021/09/04 06:56:41;;;;;;;6.20;4.10;;;;;;;18.52;56.24;97403.81;5045871;28;20061;-43
2021/09/04 06:59:10;;;;;;;6.53;4.18;;;;;;;18.61;55.94;97401.16;5046310;28;20048;-43
2021/09/04 07:01:35;;;;;;;6.63;4.18;;;;;;;18.62;55.82;97408.28;5046244;28;20094;-44
2021/09/04 07:04:01;;;;;;;6.55;4.38;;;;;;;18.57;56.58;97411.94;5045935;28;20479;-43
2021/09/04 07:06:26;;;;;;;7.80;4.15;;;;;;;18.65;55.80;97413.16;5045635;28;20441;-43
2021/09/04 07:08:51;;;;;;;6.85;4.32;;;;;;;18.72;55.81;97412.75;5046062;28;20626;-44
2021/09/04 07:11:17;;;;;;;5.72;3.72;;;;;;;18.77;55.52;97415.41;5045166;28;20426;-46
2021/09/04 07:13:42;;;;;;;5.57;3.85;;;;;;;18.84;54.34;97415.00;5046238;28;20028;-45
2021/09/04 07:16:07;;;;;;;6.03;4.00;;;;;;;18.80;55.45;97417.50;5041287;28;20013;-46
2021/09/04 07:18:33;;;;;;;6.70;4.40;;;;;;;18.81;55.46;97419.16;5042351;28;20029;-46
2021/09/04 07:20:58;;;;;;;6.97;4.15;;;;;;;18.78;55.55;97416.19;5045663;28;20083;-43
2021/09/04 07:23:23;;;;;;;6.13;4.20;;;;;;;18.88;55.40;97412.44;5045453;28;20053;-42
2021/09/04 07:25:49;;;;;;;6.25;4.07;;;;;;;18.87;55.31;97413.56;5045516;28;20060;-45
2021/09/04 07:28:14;;;;;;;6.38;4.00;;;;;;;18.90;55.24;97408.28;5045676;28;20025;-44
2021/09/04 07:30:40;;;;;;;8.57;4.45;;;;;;;18.94;54.98;97413.97;5065519;28;20667;-46
2021/09/04 07:33:05;;;;;;;5.32;3.63;;;;;;;18.96;54.96;97415.28;5061308;28;20021;-43
2021/09/04 07:35:31;;;;;;;5.72;3.85;;;;;;;18.95;55.17;97419.13;5045685;28;20044;-44
2021/09/04 07:37:56;;;;;;;6.60;4.00;;;;;;;18.99;54.92;97424.84;5055009;28;20028;-44
2021/09/04 07:40:22;;;;;;;6.28;4.10;;;;;;;18.98;54.94;97410.31;5065060;28;20391;-45
2021/09/04 07:42:47;;;;;;;7.25;4.03;;;;;;;18.97;55.02;97424.31;5065557;28;20415;-45
2021/09/04 07:45:13;;;;;;;5.35;3.95;;;;;;;19.00;55.04;97420.16;5056163;28;20064;-44
2021/09/04 07:47:39;;;;;;;6.32;3.88;;;;;;;19.00;55.08;97429.22;5049463;28;20159;-42
2021/09/04 07:50:05;;;;;;;7.03;4.10;;;;;;;19.01;55.44;97424.53;5033468;28;20068;-41
2021/09/04 07:52:30;;;;;;;5.53;3.55;;;;;;;19.00;55.90;97425.63;5032979;28;20427;-39
2021/09/04 07:54:55;;;;;;;6.20;4.40;;;;;;;18.92;56.40;97429.91;5032062;28;20087;-40
2021/09/04 07:57:21;;;;;;;6.00;4.00;;;;;;;19.08;55.83;97424.94;5032771;28;20416;-43
2021/09/04 07:59:46;;;;;;;6.50;3.92;;;;;;;19.13;55.56;97426.78;5060217;28;20073;-40
2021/09/04 08:02:12;;;;;;;6.45;4.13;;;;;;;19.13;55.28;97424.88;5049883;28;20443;-40
2021/09/04 08:04:37;;;;;;;7.95;4.00;;;;;;;19.17;55.14;97422.31;5053262;28;20127;-42
2021/09/04 08:07:02;;;;;;;7.10;4.20;;;;;;;19.20;55.08;97422.50;5053776;28;20491;-42
2021/09/04 08:09:28;;;;;;;8.73;4.00;;;;;;;19.21;55.29;97423.31;5046055;28;20056;-40
2021/09/04 08:11:53;;;;;;;6.03;4.40;;;;;;;19.22;55.21;97428.50;5042468;28;20025;-44
2021/09/04 08:14:19;;;;;;;7.70;4.22;;;;;;;19.19;55.48;97431.84;5048646;28;20059;-39
2021/09/04 08:16:44;;;;;;;9.13;4.90;;;;;;;19.20;55.61;97433.47;5051652;28;20632;-39
2021/09/04 08:19:09;;;;;;;8.15;4.20;;;;;;;19.23;55.63;97429.28;5047291;28;20021;-46
2021/09/04 08:21:35;;;;;;;7.50;4.70;;;;;;;19.28;55.48;97431.97;5047942;28;20013;-40
2021/09/04 08:24:00;;;;;;;7.70;4.38;;;;;;;19.31;55.71;97436.00;5047806;28;20660;-40
2021/09/04 08:26:26;;;;;;;9.98;5.05;;;;;;;19.39;55.75;97440.78;5052935;28;20029;-39
2021/09/04 08:28:51;;;;;;;7.75;4.53;;;;;;;19.46;55.77;97437.59;5053423;28;20034;-40
2021/09/04 08:31:16;;;;;;;7.95;4.50;;;;;;;19.48;55.91;97447.16;5052206;28;20067;-41
2021/09/04 08:33:42;;;;;;;8.63;4.80;;;;;;;19.55;56.05;97445.91;5050912;28;20635;-46
2021/09/04 08:36:07;;;;;;;8.73;4.78;;;;;;;19.66;55.21;97441.00;5046993;28;20646;-43
2021/09/04 08:38:32;;;;;;;6.15;4.22;;;;;;;19.68;55.54;97445.06;5053864;28;20035;-40
2021/09/04 08:40:58;;;;;;;9.70;5.03;;;;;;;19.50;56.07;97450.38;5056370;28;20532;-42
2021/09/04 08:43:23;;;;;;;9.00;4.78;;;;;;;19.38;56.34;97449.31;5045668;28;20044;-42
2021/09/04 08:45:49;;;;;;;8.55;5.10;;;;;;;19.50;56.04;97450.38;5049701;28;20025;-42
2021/09/04 08:48:15;;;;;;;9.00;5.07;;;;;;;19.51;55.89;97448.47;5049710;28;20439;-42
2021/09/04 08:50:41;;;;;;;8.02;5.35;;;;;;;19.54;55.71;97450.59;5044467;28;20850;-41
2021/09/04 08:53:06;;;;;;;8.13;5.03;;;;;;;19.55;55.63;97454.97;5047943;28;20032;-42
2021/09/04 08:55:32;;;;;;;8.10;4.97;;;;;;;19.43;55.96;97450.03;5043196;28;20028;-42
2021/09/04 08:57:58;;;;;;;7.95;4.60;;;;;;;19.46;56.61;97462.31;5048952;28;20029;-43
2021/09/04 09:00:27;;;;;;;7.53;4.50;;;;;;;19.50;56.36;97455.09;5046052;28;20579;-42
2021/09/04 09:02:52;;;;;;;7.82;4.90;;;;;;;19.47;56.89;97463.94;5051993;28;20518;-42
2021/09/04 09:05:18;;;;;;;9.63;4.90;;;;;;;19.50;56.65;97461.38;5051487;28;20024;-41
2021/09/04 09:07:45;;;;;;;8.20;5.47;;;;;;;19.50;56.58;97455.88;5054753;28;20510;-44
2021/09/04 09:10:22;;;;;;;6.88;4.72;;;;;;;19.49;56.50;97457.00;5049599;28;20112;-41
2021/09/04 09:12:49;;;;;;;9.32;4.70;;;;;;;19.59;56.37;97460.66;5052835;28;20048;-42
2021/09/04 09:15:22;;;;;;;11.25;4.72;;;;;;;19.58;56.20;97461.78;5045902;28;20467;-40
2021/09/04 09:18:27;;;;;;;8.82;5.55;;;;;;;19.55;56.55;97456.88;5047125;28;20035;-42
2021/09/04 09:21:01;;;;;;;7.22;5.18;;;;;;;19.53;56.22;97454.44;4976902;28;20097;-43
2021/09/04 09:23:27;;;;;;;8.25;5.50;;;;;;;19.57;55.96;97451.91;5034243;28;20726;-41
2021/09/04 09:25:52;;;;;;;7.93;4.57;;;;;;;19.60;55.99;97459.50;5060943;28;20659;-41
2021/09/04 09:28:23;;;;;;;8.43;5.63;;;;;;;19.57;56.07;97455.47;5046660;28;20532;-42
2021/09/04 09:31:00;;;;;;;7.53;5.65;;;;;;;19.62;56.00;97457.28;5046425;28;20036;-41
2021/09/04 09:33:27;;;;;;;7.43;4.78;;;;;;;19.58;56.27;97468.09;5049279;28;20089;-44
2021/09/04 09:35:54;;;;;;;7.18;5.03;;;;;;;19.54;56.44;97463.50;5046038;28;20023;-42
2021/09/04 09:38:25;;;;;;;7.05;4.10;;;;;;;19.59;56.31;97455.16;5046005;28;20036;-43
2021/09/04 09:40:51;;;;;;;8.95;5.00;;;;;;;19.56;57.00;97455.75;5044441;28;20069;-41
2021/09/04 09:43:23;;;;;;;9.10;5.50;;;;;;;19.66;56.64;97446.47;5054943;28;20435;-41
2021/09/04 09:45:57;;;;;;;8.35;5.72;;;;;;;19.61;56.93;97458.41;5042430;28;20029;-40
2021/09/04 09:48:28;;;;;;;8.18;4.93;;;;;;;19.57;56.72;97451.91;5041002;28;20688;-40
2021/09/04 09:50:55;;;;;;;8.68;5.15;;;;;;;19.57;56.71;97451.91;5057836;28;20028;-43
2021/09/04 09:53:21;;;;;;;6.97;4.68;;;;;;;19.60;56.17;97451.28;5030088;28;20024;-42
2021/09/04 09:55:48;;;;;;;7.80;5.00;;;;;;;19.64;55.76;97441.28;5044651;28;20020;-42
2021/09/04 09:58:15;;;;;;;8.55;5.15;;;;;;;19.61;55.51;97448.22;5050832;28;20055;-44
2021/09/04 10:00:41;;;;;;;7.35;4.85;;;;;;;19.60;55.78;97440.28;5041409;28;20032;-44
2021/09/04 10:03:08;;;;;;;8.25;5.43;;;;;;;19.93;54.31;97448.31;5059667;28;20028;-43
2021/09/04 10:05:34;;;;;;;7.85;4.82;;;;;;;19.86;54.34;97445.19;5064936;28;20028;-44
2021/09/04 10:08:00;;;;;;;8.60;5.28;;;;;;;19.75;54.78;97447.38;5062656;28;20033;-41
2021/09/04 10:10:31;;;;;;;8.18;5.05;;;;;;;19.70;55.01;97442.00;5042790;28;20658;-42
2021/09/04 10:12:57;;;;;;;;;;;;;;;19.70;54.58;97437.31;5027763;28;20024;-44
2021/09/04 10:15:26;;;;;;;9.70;4.45;;;;;;;19.82;53.49;97441.44;5034793;28;19909;-44
2021/09/04 10:17:53;;;;;;;8.57;4.95;;;;;;;19.79;54.03;97448.38;5055966;28;20028;-39
2021/09/04 10:20:21;;;;;;;7.85;4.22;;;;;;;19.86;53.27;97435.03;5054386;28;20071;-42
2021/09/04 10:22:46;;;;;;;9.70;4.97;;;;;;;19.93;52.40;97431.84;5036690;28;20036;-45
2021/09/04 10:25:17;;;;;;;7.30;4.82;;;;;;;19.88;52.15;97435.53;5045396;28;20029;-42
2021/09/04 10:27:45;;;;;;;6.45;4.03;;;;;;;19.78;52.51;97438.50;5042970;28;20071;-42
2021/09/04 10:30:45;;;;;;;7.32;4.22;;;;;;;19.82;52.50;97433.19;5051999;28;20548;-41
2021/09/04 10:33:16;;;;;;;7.20;3.97;;;;;;;20.16;50.56;97429.09;5026633;28;20178;-42
2021/09/04 10:35:53;;;;;;;8.48;5.15;;;;;;;20.37;48.07;97428.56;5054080;28;20098;-41
2021/09/04 10:38:18;;;;;;;6.97;4.25;;;;;;;20.10;49.86;97431.19;5046014;28;20088;-41
2021/09/04 10:40:52;;;;;;;6.50;4.18;;;;;;;20.17;49.61;97418.91;5048685;28;20432;-40
2021/09/04 10:43:19;;;;;;;7.38;4.28;;;;;;;20.02;50.78;97419.00;5044280;28;20612;-43
2021/09/04 10:45:47;;;;;;;6.65;3.97;;;;;;;19.99;51.45;97421.56;5048039;28;20546;-42
2021/09/04 10:48:21;;;;;;;6.80;4.35;;;;;;;19.96;51.79;97417.47;5048981;28;20037;-40
2021/09/04 10:51:08;;;;;;;7.43;3.97;;;;;;;19.93;51.72;97420.06;5046612;28;20024;-44
2021/09/04 10:53:47;;;;;;;6.38;3.78;;;;;;;20.08;50.02;97416.13;5052701;28;20055;-44
2021/09/04 10:56:31;;;;;;;6.60;3.22;;;;;;;20.07;50.51;97411.75;5050705;28;20028;-39
2021/09/04 10:58:57;;;;;;;8.50;4.10;;;;;;;20.12;50.53;97408.88;5042426;28;20135;-40
2021/09/04 11:01:48;;;;;;;7.63;4.00;;;;;;;20.03;50.38;97422.56;5049092;28;20127;-42
2021/09/04 11:04:13;;;;;;;8.47;3.80;;;;;;;20.10;49.05;97419.38;5038950;28;20521;-42
2021/09/04 11:06:42;;;;;;;8.98;3.88;;;;;;;20.19;47.83;97413.94;5055278;28;20115;-42
2021/09/04 11:09:11;;;;;;;7.45;4.25;;;;;;;20.17;48.13;97417.00;5048238;28;20033;-43
2021/09/04 11:11:38;;;;;;;5.47;3.15;;;;;;;20.11;49.35;97410.00;5046760;28;20101;-41
2021/09/04 11:14:22;;;;;;;7.03;3.63;;;;;;;20.16;50.10;97409.06;5043946;28;20103;-40
2021/09/04 11:16:48;;;;;;;7.70;4.07;;;;;;;20.25;49.19;97413.50;5048180;28;20094;-42
2021/09/04 11:19:40;;;;;;;5.82;3.53;;;;;;;20.47;46.90;97402.75;5048495;28;20028;-41
2021/09/04 11:22:16;;;;;;;7.43;4.10;;;;;;;20.32;47.79;97409.47;5046643;28;20045;-40
2021/09/04 11:24:43;;;;;;;6.65;3.60;;;;;;;20.50;46.55;97399.38;5041408;28;20416;-40
2021/09/04 11:27:09;;;;;;;7.35;3.83;;;;;;;20.39;47.86;97409.84;5047423;28;20644;-40
2021/09/04 11:29:58;;;;;;;6.68;3.00;;;;;;;20.27;48.33;97405.72;5041945;28;20060;-43
2021/09/04 11:32:26;;;;;;;7.45;3.55;;;;;;;20.31;48.59;97408.66;5047946;28;20075;-38